createdAt,value
2018-11-01T00:01:21.863Z,6.90
2018-11-01T00:06:51.349Z,6.90
2018-11-01T00:12:20.797Z,7.00
2018-11-01T00:17:50.315Z,7.00
2018-11-01T00:23:19.700Z,7.10
2018-11-01T00:28:49.206Z,7.10
2018-11-01T00:34:18.549Z,7.30
2018-11-01T00:39:48.159Z,7.30
2018-11-01T00:45:17.553Z,7.40
2018-11-01T00:50:46.879Z,7.50
2018-11-01T00:56:16.244Z,7.50
2018-11-01T01:01:45.633Z,7.50
2018-11-01T01:07:14.999Z,7.50
2018-11-01T01:12:45.930Z,7.50
2018-11-01T01:18:15.403Z,7.50
2018-11-01T01:23:44.828Z,7.50
2018-11-01T01:29:14.184Z,7.50
2018-11-01T01:34:43.567Z,7.50
2018-11-01T01:40:13.037Z,7.50
2018-11-01T01:45:42.511Z,7.50
2018-11-01T01:51:12.035Z,7.50
2018-11-01T01:56:41.390Z,7.40
2018-11-01T02:02:10.713Z,7.50
2018-11-01T02:07:40.201Z,7.50
2018-11-01T02:13:09.654Z,7.60
2018-11-01T02:18:39.629Z,7.50
2018-11-01T02:24:09.884Z,7.60
2018-11-01T02:29:39.300Z,7.50
2018-11-01T02:35:10.195Z,7.50
2018-11-01T02:40:39.532Z,7.50
2018-11-01T02:46:08.918Z,7.50
2018-11-01T02:51:38.275Z,7.50
2018-11-01T02:57:07.640Z,7.40
2018-11-01T03:02:37.095Z,7.40
2018-11-01T03:08:06.610Z,7.40
2018-11-01T03:13:36.270Z,7.40
2018-11-01T03:19:06.426Z,7.40
2018-11-01T03:24:35.904Z,7.30
2018-11-01T03:30:05.925Z,7.30
2018-11-01T03:35:35.353Z,7.20
2018-11-01T03:41:04.905Z,7.10
2018-11-01T03:46:34.349Z,7.00
2018-11-01T03:52:03.842Z,7.00
2018-11-01T03:57:33.029Z,7.00
2018-11-01T04:03:02.473Z,7.00
2018-11-01T04:08:31.859Z,7.00
2018-11-01T04:14:01.254Z,6.90
2018-11-01T04:19:30.590Z,6.90
2018-11-01T04:25:00.019Z,6.90
2018-11-01T04:30:29.298Z,6.80
2018-11-01T04:35:58.608Z,6.80
2018-11-01T04:41:28.776Z,6.80
2018-11-01T04:46:58.087Z,6.80
2018-11-01T04:52:27.320Z,6.80
2018-11-01T04:57:56.613Z,6.70
2018-11-01T05:03:25.969Z,6.80
2018-11-01T05:08:55.251Z,6.80
2018-11-01T05:14:24.470Z,6.70
2018-11-01T05:19:53.708Z,6.70
2018-11-01T05:25:22.987Z,6.60
2018-11-01T05:30:52.205Z,6.50
2018-11-01T05:36:22.514Z,6.60
2018-11-01T05:41:51.956Z,6.60
2018-11-01T05:47:21.155Z,6.70
2018-11-01T05:52:50.486Z,6.80
2018-11-01T05:58:20.171Z,7.00
2018-11-01T06:03:49.401Z,7.10
2018-11-01T06:09:23.813Z,7.20
2018-11-01T06:14:53.100Z,7.40
2018-11-01T06:20:23.544Z,7.60
2018-11-01T06:25:52.882Z,7.60
2018-11-01T06:31:22.201Z,7.70
2018-11-01T06:36:51.532Z,7.80
2018-11-01T06:42:20.982Z,7.90
2018-11-01T06:47:50.205Z,8.10
2018-11-01T06:53:19.512Z,8.10
2018-11-01T06:58:48.805Z,8.10
2018-11-01T07:04:18.072Z,8.20
2018-11-01T07:09:47.418Z,8.30
2018-11-01T07:15:17.178Z,8.30
2018-11-01T07:20:46.444Z,8.30
2018-11-01T07:26:15.838Z,8.40
2018-11-01T07:31:44.893Z,8.50
2018-11-01T07:37:14.215Z,8.60
2018-11-01T07:42:43.536Z,8.70
2018-11-01T07:48:12.784Z,8.70
2018-11-01T07:53:41.981Z,8.80
2018-11-01T07:59:11.201Z,8.90
2018-11-01T08:04:40.511Z,8.90
2018-11-01T08:10:12.761Z,9.00
2018-11-01T08:15:42.006Z,9.00
2018-11-01T08:21:11.581Z,9.10
2018-11-01T08:26:40.639Z,9.20
2018-11-01T08:32:09.856Z,9.30
2018-11-01T08:37:39.528Z,9.30
2018-11-01T08:43:08.973Z,9.30
2018-11-01T08:48:38.259Z,9.40
2018-11-01T08:54:07.653Z,9.40
2018-11-01T08:59:38.117Z,9.50
2018-11-01T09:05:08.787Z,9.50
2018-11-01T09:10:38.160Z,9.50
2018-11-01T09:16:07.449Z,9.60
2018-11-01T09:21:36.812Z,9.50
2018-11-01T09:27:06.930Z,9.40
2018-11-01T09:32:37.317Z,9.40
2018-11-01T09:38:06.777Z,9.40
2018-11-01T09:43:36.073Z,9.40
2018-11-01T09:49:05.710Z,9.40
2018-11-01T09:54:35.052Z,9.40
2018-11-01T10:00:05.142Z,9.60
2018-11-01T10:05:34.395Z,9.70
2018-11-01T10:11:04.487Z,9.70
2018-11-01T10:16:34.715Z,9.80
2018-11-01T10:22:04.133Z,9.80
2018-11-01T10:27:34.635Z,9.70
2018-11-01T10:33:06.153Z,9.80
2018-11-01T10:38:35.538Z,9.90
2018-11-01T10:44:05.634Z,10.10
2018-11-01T10:49:35.209Z,10.30
2018-11-01T10:55:04.740Z,10.40
2018-11-01T11:00:39.500Z,10.60
2018-11-01T11:06:09.276Z,10.80
2018-11-01T11:11:38.532Z,11.00
2018-11-01T11:17:08.823Z,11.10
2018-11-01T11:22:38.225Z,11.20
2018-11-01T11:28:07.606Z,11.20
2018-11-01T11:33:36.853Z,11.30
2018-11-01T11:39:11.152Z,11.40
2018-11-01T11:44:40.586Z,11.50
2018-11-01T11:50:11.476Z,11.50
2018-11-01T11:55:40.861Z,11.60
2018-11-01T12:01:10.241Z,11.70
2018-11-01T12:06:39.549Z,11.80
2018-11-01T12:12:08.988Z,11.80
2018-11-01T12:17:39.583Z,11.90
2018-11-01T12:23:09.203Z,11.90
2018-11-01T12:28:38.586Z,12.00
2018-11-01T12:34:07.847Z,12.10
2018-11-01T12:39:37.110Z,12.30
2018-11-01T12:45:08.395Z,12.30
2018-11-01T12:50:37.664Z,12.40
2018-11-01T12:56:07.082Z,12.40
2018-11-01T13:01:36.412Z,12.40
2018-11-01T13:07:06.188Z,12.40
2018-11-01T13:12:35.617Z,12.40
2018-11-01T13:18:05.267Z,12.50
2018-11-01T13:23:35.030Z,12.60
2018-11-01T13:29:04.525Z,12.60
2018-11-01T13:34:33.907Z,12.70
2018-11-01T13:40:03.505Z,12.80
2018-11-01T13:45:32.628Z,12.80
2018-11-01T13:51:02.283Z,12.90
2018-11-01T13:56:31.897Z,13.00
2018-11-01T14:02:01.302Z,13.10
2018-11-01T14:07:30.649Z,13.20
2018-11-01T14:12:59.907Z,13.30
2018-11-01T14:18:29.636Z,15.30
2018-11-01T14:23:59.031Z,18.30
2018-11-01T14:29:28.585Z,20.20
2018-11-01T14:34:58.162Z,21.30
2018-11-01T14:40:27.845Z,22.10
2018-11-01T14:45:57.698Z,22.70
2018-11-01T14:51:27.293Z,23.30
2018-11-01T14:57:01.021Z,22.90
2018-11-01T15:02:28.373Z,22.30
2018-11-01T15:07:57.820Z,21.50
2018-11-01T15:13:27.210Z,20.50
2018-11-01T15:18:56.686Z,19.50
2018-11-01T15:24:26.107Z,18.50
2018-11-01T15:29:56.344Z,17.60
2018-11-01T15:35:26.928Z,16.80
2018-11-01T15:41:01.028Z,16.20
2018-11-01T15:46:30.559Z,15.60
2018-11-01T15:52:00.206Z,15.10
2018-11-01T15:57:29.912Z,14.60
2018-11-01T16:02:59.287Z,14.20
2018-11-01T16:08:29.696Z,13.90
2018-11-01T16:13:59.435Z,13.50
2018-11-01T16:19:28.865Z,13.20
2018-11-01T16:24:58.533Z,12.90
2018-11-01T16:30:28.195Z,12.60
2018-11-01T16:35:57.966Z,12.40
2018-11-01T16:41:27.611Z,12.20
2018-11-01T16:46:57.416Z,11.90
2018-11-01T16:52:27.184Z,11.70
2018-11-01T16:57:57.292Z,11.50
2018-11-01T17:03:26.601Z,11.20
2018-11-01T17:08:56.855Z,11.00
2018-11-01T17:14:26.373Z,10.90
2018-11-01T17:19:55.860Z,10.70
2018-11-01T17:25:25.217Z,10.40
2018-11-01T17:30:54.445Z,10.30
2018-11-01T17:36:23.905Z,10.10
2018-11-01T17:41:53.344Z,9.90
2018-11-01T17:47:22.840Z,9.70
2018-11-01T17:52:52.172Z,9.60
2018-11-01T17:58:21.537Z,9.50
2018-11-01T18:03:51.589Z,9.40
2018-11-01T18:09:21.407Z,9.20
2018-11-01T18:14:50.829Z,9.10
2018-11-01T18:20:20.429Z,9.00
2018-11-01T18:25:50.947Z,8.90
2018-11-01T18:31:20.717Z,8.80
2018-11-01T18:36:50.216Z,8.80
2018-11-01T18:42:20.018Z,8.70
2018-11-01T18:47:49.457Z,8.60
2018-11-01T18:53:18.938Z,8.60
2018-11-01T18:58:48.485Z,8.60
2018-11-01T19:04:17.862Z,8.50
2018-11-01T19:09:47.229Z,8.40
2018-11-01T19:15:17.013Z,8.30
2018-11-01T19:20:46.336Z,8.20
2018-11-01T19:26:15.687Z,8.10
2018-11-01T19:31:45.104Z,8.10
2018-11-01T19:37:14.649Z,8.10
2018-11-01T19:42:44.840Z,8.00
2018-11-01T19:48:14.412Z,7.90
2018-11-01T19:53:43.940Z,7.80
2018-11-01T19:59:13.488Z,7.80
2018-11-01T20:04:42.870Z,7.70
2018-11-01T20:10:13.579Z,7.60
2018-11-01T20:15:43.581Z,7.60
2018-11-01T20:21:13.050Z,7.50
2018-11-01T20:26:42.463Z,7.50
2018-11-01T20:32:11.997Z,7.40
2018-11-01T20:37:42.744Z,7.30
2018-11-01T20:43:12.729Z,7.10
2018-11-01T20:48:43.195Z,7.00
2018-11-01T20:54:12.772Z,6.90
2018-11-01T20:59:42.518Z,6.90
2018-11-01T21:05:12.375Z,6.80
2018-11-01T21:10:41.957Z,6.80
2018-11-01T21:16:12.988Z,6.80
2018-11-01T21:21:43.819Z,6.80
2018-11-01T21:27:14.001Z,6.70
2018-11-01T21:32:43.414Z,6.70
2018-11-01T21:38:14.557Z,6.70
2018-11-01T21:43:44.412Z,6.70
2018-11-01T21:49:14.752Z,6.60
2018-11-01T21:54:44.102Z,6.60
2018-11-01T22:00:14.044Z,6.60
2018-11-01T22:05:43.439Z,6.60
2018-11-01T22:11:13.365Z,6.50
2018-11-01T22:16:42.709Z,6.40
2018-11-01T22:22:12.192Z,6.40
2018-11-01T22:27:41.744Z,6.30
2018-11-01T22:33:11.041Z,6.30
2018-11-01T22:38:40.416Z,6.30
2018-11-01T22:44:10.098Z,6.30
2018-11-01T22:49:40.057Z,6.20
2018-11-01T22:55:10.692Z,6.20
2018-11-01T23:00:44.057Z,6.10
2018-11-01T23:06:13.660Z,6.00
2018-11-01T23:11:43.652Z,6.00
2018-11-01T23:17:14.418Z,5.90
2018-11-01T23:22:43.727Z,5.90
2018-11-01T23:28:12.992Z,5.80
2018-11-01T23:33:42.505Z,5.80
2018-11-01T23:39:17.036Z,5.80
2018-11-01T23:44:51.652Z,5.90
2018-11-01T23:50:25.208Z,5.90
2018-11-01T23:55:54.554Z,5.90
